Time;durP1;ratioP1;P1;durP2;ratioP2;P2;SDS_P1;SDS_P2;PMS_P1;PMS_P2;Temp;Humidity;BMP_temperature;BMP_pressure;BME280_temperature;BME280_humidity;BME280_pressure;Samples;Min_cycle;Max_cycle;Signal;HPM_P1;HPM_P2
2021/08/12 00:00:54;;;;;;;15.60;8.55;;;17.80;86.70;;;;;;5073548;28;20051;-37
2021/08/12 00:03:20;;;;;;;13.25;9.13;;;17.90;86.60;;;;;;5073591;28;20078;-37
2021/08/12 00:05:46;;;;;;;14.90;9.07;;;17.80;86.50;;;;;;5072085;28;20031;-37
2021/08/12 00:08:11;;;;;;;11.63;8.30;;;17.80;86.60;;;;;;5073483;28;20028;-36
2021/08/12 00:10:37;;;;;;;13.32;8.73;;;17.80;86.50;;;;;;5073067;28;20024;-36
2021/08/12 00:13:03;;;;;;;11.05;7.93;;;17.80;86.80;;;;;;5071634;28;20040;-37
2021/08/12 00:15:28;;;;;;;18.73;8.43;;;17.80;87.10;;;;;;5072762;28;20028;-36
2021/08/12 00:17:54;;;;;;;12.45;8.55;;;17.70;87.10;;;;;;5072924;28;20027;-36
2021/08/12 00:20:19;;;;;;;12.10;8.10;;;17.70;87.20;;;;;;5072902;28;20479;-37
2021/08/12 00:22:45;;;;;;;8.27;6.88;;;17.60;87.20;;;;;;5073080;28;20048;-36
2021/08/12 00:25:11;;;;;;;10.55;8.15;;;17.70;87.20;;;;;;5072855;28;20025;-36
2021/08/12 00:27:37;;;;;;;13.18;8.85;;;17.70;87.10;;;;;;5072749;28;20105;-36
2021/08/12 00:30:03;;;;;;;9.15;7.35;;;17.70;87.10;;;;;;5072721;28;20025;-35
2021/08/12 00:32:29;;;;;;;11.95;8.35;;;17.70;87.00;;;;;;5073047;28;20493;-35
2021/08/12 00:34:54;;;;;;;10.18;7.03;;;17.70;87.00;;;;;;5072450;28;20051;-36
2021/08/12 00:37:20;;;;;;;11.48;7.82;;;17.70;86.90;;;;;;5073122;28;20020;-36
2021/08/12 00:39:46;;;;;;;10.43;7.55;;;17.60;86.90;;;;;;5073341;28;20052;-36
2021/08/12 00:42:11;;;;;;;10.55;7.60;;;17.60;86.90;;;;;;5072936;28;20020;-36
2021/08/12 00:44:37;;;;;;;10.05;8.15;;;17.50;87.00;;;;;;5072535;28;20090;-36
2021/08/12 00:47:03;;;;;;;10.80;7.60;;;17.50;87.10;;;;;;5072341;28;20028;-37
2021/08/12 00:49:29;;;;;;;8.77;7.00;;;17.50;87.20;;;;;;5072479;28;20024;-36
2021/08/12 00:51:55;;;;;;;8.15;6.97;;;17.50;87.20;;;;;;5072839;28;20040;-36
2021/08/12 00:54:21;;;;;;;11.50;7.43;;;17.40;87.40;;;;;;5072438;28;20041;-36
2021/08/12 00:56:48;;;;;;;11.77;8.35;;;17.40;87.60;;;;;;5072986;28;20116;-36
2021/08/12 00:59:14;;;;;;;12.88;8.85;;;17.30;88.00;;;;;;5072700;28;20045;-37
2021/08/12 01:01:40;;;;;;;12.13;7.57;;;17.30;88.00;;;;;;5072181;28;20059;-36
2021/08/12 01:04:05;;;;;;;8.65;7.53;;;17.30;88.00;;;;;;5072389;28;20467;-36
2021/08/12 01:06:39;;;;;;;11.93;8.50;;;17.20;88.00;;;;;;5072122;28;20103;-37
2021/08/12 01:09:16;;;;;;;11.85;8.50;;;17.20;88.10;;;;;;5072494;28;20039;-36
2021/08/12 01:11:52;;;;;;;10.43;7.47;;;17.20;88.10;;;;;;5072454;28;20017;-36
2021/08/12 01:14:36;;;;;;;13.95;8.77;;;17.20;88.10;;;;;;5072364;28;20032;-36
2021/08/12 01:17:06;;;;;;;11.43;9.45;;;17.20;88.10;;;;;;5072278;28;20029;-36
2021/08/12 01:20:06;;;;;;;10.35;7.38;;;17.30;88.00;;;;;;5072114;28;20017;-36
2021/08/12 01:22:36;;;;;;;13.70;7.68;;;17.20;87.90;;;;;;5072336;28;20056;-37
2021/08/12 01:25:07;;;;;;;12.65;8.95;;;17.20;87.80;;;;;;5072007;28;20043;-36
2021/08/12 01:27:36;;;;;;;10.13;7.65;;;17.20;87.70;;;;;;5072719;28;20356;-36
2021/08/12 01:30:05;;;;;;;12.38;7.78;;;17.20;87.90;;;;;;5072440;28;20404;-37
2021/08/12 01:33:03;;;;;;;12.82;7.70;;;17.20;88.00;;;;;;5071711;28;20029;-36
2021/08/12 01:35:31;;;;;;;10.15;7.75;;;17.10;88.30;;;;;;5070394;28;20052;-37
2021/08/12 01:38:03;;;;;;;9.90;6.70;;;17.10;88.60;;;;;;5072383;28;20017;-36
2021/08/12 01:40:35;;;;;;;9.70;6.90;;;17.10;88.50;;;;;;5072385;28;20029;-36
2021/08/12 01:43:05;;;;;;;8.82;7.75;;;17.00;88.50;;;;;;5074766;28;20473;-47
2021/08/12 01:45:31;;;;;;;9.93;7.78;;;17.00;88.60;;;;;;5075936;28;20027;-46
2021/08/12 01:47:58;;;;;;;9.95;7.45;;;16.90;88.70;;;;;;5075673;28;20469;-46
2021/08/12 01:50:25;;;;;;;10.32;7.13;;;16.90;88.90;;;;;;5074577;28;20077;-50
2021/08/12 01:52:52;;;;;;;9.63;7.15;;;16.90;88.90;;;;;;5075706;28;20028;-47
2021/08/12 01:55:28;;;;;;;9.73;6.95;;;16.80;89.10;;;;;;5075890;28;20074;-47
2021/08/12 01:57:55;;;;;;;8.48;6.95;;;16.80;89.10;;;;;;5075828;28;20050;-47
2021/08/12 02:00:21;;;;;;;8.68;7.38;;;16.80;89.40;;;;;;5074167;28;20032;-47
2021/08/12 02:02:47;;;;;;;9.75;7.63;;;16.80;89.50;;;;;;5075508;28;20090;-48
2021/08/12 02:05:14;;;;;;;12.63;8.52;;;16.80;89.70;;;;;;5075668;28;20444;-48
2021/08/12 02:07:44;;;;;;;11.70;8.48;;;16.90;88.90;;;;;;5075370;28;20017;-48
2021/08/12 02:10:11;;;;;;;;;;;16.80;89.00;;;;;;5075705;28;20476;-47
2021/08/12 02:12:37;;;;;;;10.25;7.57;;;16.80;89.20;;;;;;5074049;28;19930;-47
2021/08/12 02:15:04;;;;;;;13.30;8.95;;;16.70;89.30;;;;;;5075375;28;20115;-51
2021/08/12 02:17:30;;;;;;;10.63;7.90;;;16.70;89.10;;;;;;5075178;28;20127;-47
2021/08/12 02:19:55;;;;;;;10.25;7.80;;;16.70;89.00;;;;;;5075222;28;20056;-50
2021/08/12 02:22:25;;;;;;;10.45;7.47;;;16.50;89.00;;;;;;5074991;28;20158;-47
2021/08/12 02:25:02;;;;;;;12.50;8.25;;;16.40;89.40;;;;;;5074839;28;20024;-47
2021/08/12 02:27:30;;;;;;;11.25;8.80;;;16.40;89.50;;;;;;5075099;28;20476;-47
2021/08/12 02:29:56;;;;;;;10.45;7.55;;;16.30;89.70;;;;;;5074831;28;20028;-51
2021/08/12 02:32:27;;;;;;;13.45;8.55;;;16.40;89.80;;;;;;5075135;28;20039;-47
2021/08/12 02:34:55;;;;;;;10.35;8.18;;;16.40;89.80;;;;;;5074700;28;20045;-48
2021/08/12 02:37:23;;;;;;;10.00;8.00;;;16.40;89.80;;;;;;5074869;28;20093;-47
2021/08/12 02:39:49;;;;;;;12.90;8.68;;;16.40;89.90;;;;;;5074782;28;20075;-46
2021/08/12 02:42:15;;;;;;;13.10;9.82;;;16.40;89.80;;;;;;5074660;28;20025;-46
2021/08/12 02:44:42;;;;;;;11.40;7.97;;;16.50;89.70;;;;;;5073362;28;20032;-47
2021/08/12 02:47:08;;;;;;;10.07;8.00;;;16.50;89.40;;;;;;5074614;28;20028;-48
2021/08/12 02:49:45;;;;;;;16.40;9.07;;;16.40;89.30;;;;;;5074523;28;20024;-46
2021/08/12 02:52:15;;;;;;;10.07;7.55;;;16.40;89.50;;;;;;5074481;28;20016;-46
2021/08/12 02:54:44;;;;;;;8.73;6.85;;;16.30;89.50;;;;;;5074711;28;20034;-47
2021/08/12 02:57:10;;;;;;;10.73;7.88;;;16.30;89.60;;;;;;5074336;28;20021;-48
2021/08/12 02:59:36;;;;;;;9.35;7.72;;;16.30;89.70;;;;;;5074312;28;20095;-46
2021/08/12 03:02:03;;;;;;;9.30;7.63;;;16.30;89.70;;;;;;5074240;28;20074;-47
2021/08/12 03:04:29;;;;;;;10.05;7.65;;;16.30;89.70;;;;;;5074107;28;20411;-48
2021/08/12 03:06:59;;;;;;;9.48;6.75;;;16.30;89.60;;;;;;5074120;28;20031;-46
2021/08/12 03:09:26;;;;;;;9.98;7.30;;;16.40;89.40;;;;;;5074318;28;20024;-46
2021/08/12 03:11:55;;;;;;;9.70;7.65;;;16.40;89.40;;;;;;5074799;28;20033;-46
2021/08/12 03:14:21;;;;;;;7.90;6.53;;;16.50;89.20;;;;;;5074289;28;20024;-49
2021/08/12 03:16:47;;;;;;;11.95;8.00;;;16.50;89.10;;;;;;5074015;28;20027;-47
2021/08/12 03:19:18;;;;;;;11.52;7.82;;;16.50;89.20;;;;;;5073960;28;20090;-46
2021/08/12 03:22:08;;;;;;;10.15;7.90;;;16.50;89.20;;;;;;5074021;28;20021;-46
2021/08/12 03:24:40;;;;;;;12.95;8.52;;;16.50;89.40;;;;;;5072740;28;20024;-50
2021/08/12 03:27:10;;;;;;;8.18;6.40;;;16.40;89.50;;;;;;5074034;28;20060;-47
2021/08/12 03:29:37;;;;;;;10.20;7.55;;;16.40;89.40;;;;;;5074226;28;20039;-46
2021/08/12 03:32:03;;;;;;;11.45;7.65;;;16.30;89.40;;;;;;5073867;28;20020;-46
2021/08/12 03:34:29;;;;;;;10.95;7.72;;;16.30;89.30;;;;;;5073675;28;20102;-48
2021/08/12 03:36:54;;;;;;;10.85;8.20;;;16.30;89.50;;;;;;5074384;28;20021;-51
2021/08/12 03:39:21;;;;;;;11.65;8.23;;;16.30;89.70;;;;;;5074520;28;20028;-50
2021/08/12 03:41:47;;;;;;;12.50;9.45;;;16.30;89.40;;;;;;5073782;28;20016;-46
2021/08/12 03:44:12;;;;;;;9.43;7.80;;;16.30;89.40;;;;;;5073541;28;20490;-47
2021/08/12 03:46:38;;;;;;;11.50;8.48;;;16.30;89.40;;;;;;5073544;28;20028;-51
2021/08/12 03:49:05;;;;;;;11.13;7.30;;;16.10;89.70;;;;;;5073740;28;20025;-46
2021/08/12 03:51:30;;;;;;;10.90;8.25;;;16.10;90.00;;;;;;5073612;28;20017;-47
2021/08/12 03:53:57;;;;;;;12.57;9.60;;;16.00;90.00;;;;;;5073573;28;20031;-46
2021/08/12 03:56:22;;;;;;;30.33;10.43;;;16.00;89.70;;;;;;5073383;28;20024;-47
2021/08/12 03:58:48;;;;;;;13.02;8.95;;;16.00;89.80;;;;;;5073520;28;20025;-46
2021/08/12 04:01:14;;;;;;;16.35;9.63;;;15.90;90.00;;;;;;5072997;28;20025;-54
2021/08/12 04:03:39;;;;;;;13.40;8.60;;;15.90;90.20;;;;;;5073383;28;20021;-47
2021/08/12 04:06:05;;;;;;;12.48;9.77;;;16.10;89.90;;;;;;5072920;28;20520;-46
2021/08/12 04:08:31;;;;;;;10.38;8.73;;;16.10;89.50;;;;;;5073004;28;20036;-48
2021/08/12 04:10:57;;;;;;;10.77;8.10;;;16.00;89.60;;;;;;5072967;28;20059;-47
2021/08/12 04:13:23;;;;;;;13.52;9.00;;;15.90;89.90;;;;;;5071998;28;20069;-46
2021/08/12 04:15:48;;;;;;;13.52;8.75;;;15.90;90.00;;;;;;5073874;28;20028;-47
2021/08/12 04:18:14;;;;;;;11.73;8.55;;;15.90;90.00;;;;;;5073237;28;20029;-51
2021/08/12 04:20:40;;;;;;;12.68;9.18;;;15.80;90.20;;;;;;5073205;28;20068;-48
2021/08/12 04:23:05;;;;;;;11.98;9.38;;;15.80;90.20;;;;;;5073440;28;20016;-48
2021/08/12 04:25:32;;;;;;;12.35;8.98;;;15.90;90.20;;;;;;5072995;28;20031;-37
2021/08/12 04:27:57;;;;;;;11.73;8.73;;;16.00;90.10;;;;;;5071589;28;20464;-37
2021/08/12 04:30:23;;;;;;;10.95;8.25;;;16.00;89.90;;;;;;5072944;28;20029;-36
2021/08/12 04:32:49;;;;;;;15.23;8.88;;;16.00;89.80;;;;;;5071627;28;20034;-47
2021/08/12 04:35:14;;;;;;;10.10;7.97;;;15.90;89.70;;;;;;5072747;28;20040;-48
2021/08/12 04:37:43;;;;;;;11.70;8.23;;;15.90;89.80;;;;;;5072758;28;20024;-47
2021/08/12 04:40:10;;;;;;;13.35;8.30;;;15.90;89.90;;;;;;5072941;28;20519;-47
2021/08/12 04:42:36;;;;;;;9.05;7.38;;;15.90;89.90;;;;;;5072573;28;20028;-47
2021/08/12 04:45:02;;;;;;;13.00;9.20;;;16.10;89.80;;;;;;5072642;28;20029;-49
2021/08/12 04:47:28;;;;;;;19.92;9.02;;;16.30;89.60;;;;;;5072908;28;20512;-47
2021/08/12 04:49:54;;;;;;;13.68;9.07;;;16.30;89.20;;;;;;5072623;28;20487;-36
2021/08/12 04:52:20;;;;;;;14.45;8.20;;;16.30;89.00;;;;;;5072890;28;20024;-37
2021/08/12 04:54:45;;;;;;;12.25;9.00;;;16.40;89.10;;;;;;5072436;28;20108;-50
2021/08/12 04:57:11;;;;;;;12.93;9.13;;;16.40;89.00;;;;;;5072576;28;20056;-49
2021/08/12 04:59:37;;;;;;;13.27;9.10;;;16.50;88.70;;;;;;5072429;28;20048;-49
2021/08/12 05:02:02;;;;;;;14.80;9.88;;;16.40;88.70;;;;;;5072511;28;20035;-47
2021/08/12 05:04:28;;;;;;;10.95;8.63;;;16.50;88.70;;;;;;5072354;28;20033;-47
2021/08/12 05:06:54;;;;;;;15.10;9.35;;;16.60;88.40;;;;;;5072504;28;20040;-47
2021/08/12 05:09:19;;;;;;;11.30;8.23;;;16.60;88.30;;;;;;5072309;28;20488;-46
2021/08/12 05:11:45;;;;;;;14.23;8.52;;;16.80;87.60;;;;;;5072601;28;20033;-47
2021/08/12 05:14:10;;;;;;;12.93;8.40;;;16.70;88.10;;;;;;5072252;28;20064;-48
2021/08/12 05:16:36;;;;;;;10.85;7.75;;;16.70;88.00;;;;;;5072598;28;20090;-51
2021/08/12 05:19:02;;;;;;;12.75;8.38;;;16.70;88.10;;;;;;5076531;28;20028;-46
2021/08/12 05:21:28;;;;;;;14.68;10.05;;;16.70;88.10;;;;;;5075903;28;20024;-46
2021/08/12 05:23:53;;;;;;;20.00;9.70;;;16.80;88.20;;;;;;5075907;28;20031;-47
2021/08/12 05:26:19;;;;;;;14.85;9.68;;;17.00;87.50;;;;;;5076171;28;20492;-50
2021/08/12 05:28:44;;;;;;;17.15;9.90;;;17.10;87.10;;;;;;5074660;28;20392;-48
2021/08/12 05:31:10;;;;;;;23.83;10.63;;;17.10;87.30;;;;;;5076095;28;20028;-48
2021/08/12 05:33:36;;;;;;;17.42;10.65;;;17.00;87.40;;;;;;5075748;28;20059;-46
2021/08/12 05:36:03;;;;;;;21.42;11.48;;;17.00;87.60;;;;;;5075587;28;20486;-49
2021/08/12 05:38:29;;;;;;;18.70;13.60;;;17.10;88.00;;;;;;5075806;28;20021;-47
2021/08/12 05:40:56;;;;;;;17.67;12.48;;;17.20;87.40;;;;;;5075623;28;20024;-36
2021/08/12 05:43:22;;;;;;;16.63;11.85;;;17.30;86.90;;;;;;5075925;28;20016;-37
2021/08/12 05:45:48;;;;;;;15.30;12.27;;;17.30;87.10;;;;;;5075362;28;20021;-36
2021/08/12 05:48:14;;;;;;;14.25;11.32;;;17.30;87.10;;;;;;5075257;28;20534;-36
2021/08/12 05:50:44;;;;;;;15.60;10.52;;;17.40;86.80;;;;;;5075346;28;20430;-37
2021/08/12 05:53:12;;;;;;;14.73;10.82;;;17.30;87.40;;;;;;5075332;28;20363;-36
2021/08/12 05:55:38;;;;;;;11.70;10.48;;;17.20;87.60;;;;;;5075495;28;20024;-37
2021/08/12 05:58:23;;;;;;;13.63;11.30;;;17.30;87.40;;;;;;5075427;28;20020;-36
2021/08/12 06:00:48;;;;;;;12.00;10.07;;;17.40;86.60;;;;;;5075372;28;20016;-36
2021/08/12 06:03:14;;;;;;;16.27;11.15;;;17.40;86.60;;;;;;5075144;28;20069;-36
2021/08/12 06:05:41;;;;;;;12.63;10.73;;;17.50;86.50;;;;;;5075134;28;20035;-36
2021/08/12 06:08:09;;;;;;;18.70;11.45;;;17.40;86.20;;;;;;5075209;28;20033;-37
2021/08/12 06:10:35;;;;;;;17.33;11.23;;;17.50;86.40;;;;;;5075563;28;20025;-37
2021/08/12 06:13:01;;;;;;;17.05;10.80;;;17.50;86.20;;;;;;5075443;28;20032;-37
2021/08/12 06:15:28;;;;;;;17.27;12.30;;;17.50;86.40;;;;;;5075448;28;20032;-37
2021/08/12 06:17:54;;;;;;;21.35;13.50;;;17.60;86.30;;;;;;5075027;28;20056;-37
2021/08/12 06:20:21;;;;;;;19.17;12.85;;;17.70;85.90;;;;;;5074912;28;20033;-37
2021/08/12 06:22:49;;;;;;;17.40;12.70;;;17.80;85.60;;;;;;5075098;28;20354;-36
2021/08/12 06:25:15;;;;;;;15.10;10.07;;;17.90;85.30;;;;;;5075760;28;20479;-36
2021/08/12 06:27:40;;;;;;;17.85;11.57;;;18.00;85.20;;;;;;5074724;28;20025;-37
2021/08/12 06:30:08;;;;;;;14.13;10.77;;;18.30;84.80;;;;;;5074512;28;20032;-36
2021/08/12 06:32:34;;;;;;;18.95;11.88;;;18.40;83.70;;;;;;5075057;28;20071;-36
2021/08/12 06:35:00;;;;;;;18.35;12.77;;;18.50;83.70;;;;;;5075077;28;20441;-36
2021/08/12 06:37:25;;;;;;;20.90;12.02;;;18.70;83.00;;;;;;5074984;28;20024;-38
2021/08/12 06:39:51;;;;;;;17.73;12.98;;;18.80;82.60;;;;;;5074889;28;20498;-37
2021/08/12 06:42:17;;;;;;;18.67;12.57;;;18.70;82.80;;;;;;5074850;28;20021;-37
2021/08/12 06:44:43;;;;;;;17.75;12.77;;;18.80;82.60;;;;;;5074287;28;20024;-39
2021/08/12 06:47:09;;;;;;;22.77;13.85;;;18.90;82.10;;;;;;5072805;28;20028;-37
2021/08/12 06:49:34;;;;;;;18.35;12.30;;;19.30;80.90;;;;;;5074488;28;20028;-36
2021/08/12 06:52:00;;;;;;;16.35;12.07;;;19.40;80.40;;;;;;5074259;28;20473;-36
2021/08/12 06:54:26;;;;;;;17.75;11.40;;;19.70;79.00;;;;;;5074305;28;20032;-36
2021/08/12 06:56:51;;;;;;;21.23;13.90;;;19.90;78.30;;;;;;5074245;28;20024;-37
2021/08/12 06:59:17;;;;;;;26.27;14.65;;;19.80;78.20;;;;;;5073386;28;20111;-37
2021/08/12 07:01:43;;;;;;;17.77;12.75;;;19.80;78.20;;;;;;5074141;28;20017;-37
2021/08/12 07:04:08;;;;;;;17.65;11.25;;;19.90;78.60;;;;;;5074145;28;20017;-37
2021/08/12 07:06:38;;;;;;;18.45;11.93;;;20.30;77.60;;;;;;5074033;28;20025;-37
2021/08/12 07:09:04;;;;;;;17.00;12.20;;;20.50;77.40;;;;;;5073642;28;20075;-37
2021/08/12 07:11:29;;;;;;;18.13;12.50;;;20.80;76.70;;;;;;5073579;28;20032;-37
2021/08/12 07:13:55;;;;;;;15.50;11.02;;;20.80;75.70;;;;;;5073398;28;20028;-38
2021/08/12 07:16:20;;;;;;;21.75;11.95;;;21.00;74.90;;;;;;5073905;28;20028;-38
2021/08/12 07:18:46;;;;;;;18.50;11.85;;;21.00;74.70;;;;;;5074086;28;20039;-38
2021/08/12 07:21:19;;;;;;;18.63;10.90;;;21.00;74.70;;;;;;5074009;28;20024;-36
2021/08/12 07:23:48;;;;;;;23.30;13.07;;;20.30;76.90;;;;;;5074503;28;20052;-38
2021/08/12 07:26:16;;;;;;;18.95;11.90;;;20.50;76.40;;;;;;5072997;28;20438;-37
2021/08/12 07:28:43;;;;;;;15.98;11.32;;;20.50;76.50;;;;;;5072913;28;20035;-37
2021/08/12 07:31:11;;;;;;;20.50;12.23;;;20.80;75.70;;;;;;5073686;28;20020;-41
2021/08/12 07:33:37;;;;;;;17.13;11.95;;;20.70;76.00;;;;;;5073368;28;20491;-37
2021/08/12 07:36:03;;;;;;;18.42;11.85;;;20.90;76.00;;;;;;5073458;28;20111;-37
2021/08/12 07:38:30;;;;;;;22.70;11.30;;;21.30;74.40;;;;;;5073347;28;20029;-37
2021/08/12 07:40:56;;;;;;;20.23;12.00;;;21.30;73.90;;;;;;5072305;28;20039;-36
2021/08/12 07:43:22;;;;;;;18.48;11.98;;;21.30;74.00;;;;;;5073283;28;20452;-36
2021/08/12 07:45:48;;;;;;;20.65;11.63;;;21.40;73.70;;;;;;5073338;28;20043;-38
2021/08/12 07:48:14;;;;;;;15.73;11.85;;;21.30;73.70;;;;;;5073553;28;20021;-37
2021/08/12 07:50:41;;;;;;;20.30;13.25;;;21.30;73.80;;;;;;5073476;28;20032;-37
2021/08/12 07:53:06;;;;;;;18.45;12.02;;;21.70;72.20;;;;;;5073359;28;20032;-38
2021/08/12 07:55:33;;;;;;;18.63;11.52;;;22.30;70.50;;;;;;5072978;28;20097;-38
2021/08/12 07:57:58;;;;;;;16.20;10.80;;;22.50;68.70;;;;;;5072909;28;20071;-38
2021/08/12 08:00:24;;;;;;;20.38;10.90;;;22.50;67.30;;;;;;5072007;28;20158;-37
2021/08/12 08:02:50;;;;;;;15.23;9.88;;;22.80;66.90;;;;;;5073035;28;20052;-36
2021/08/12 08:05:18;;;;;;;19.65;12.30;;;23.40;64.00;;;;;;5072358;28;20035;-36
2021/08/12 08:07:45;;;;;;;14.15;9.50;;;23.40;63.50;;;;;;5072528;28;20511;-37
2021/08/12 08:10:11;;;;;;;13.05;9.65;;;23.60;63.50;;;;;;5073041;28;20045;-36
2021/08/12 08:12:38;;;;;;;13.68;8.57;;;22.80;64.90;;;;;;5072800;28;20025;-36
2021/08/12 08:15:04;;;;;;;15.52;8.85;;;23.00;65.70;;;;;;5073072;28;20036;-38
2021/08/12 08:17:30;;;;;;;15.23;9.60;;;23.30;62.90;;;;;;5071890;28;20032;-37
2021/08/12 08:19:57;;;;;;;12.90;8.68;;;23.40;62.00;;;;;;5073256;28;20028;-38
2021/08/12 08:22:26;;;;;;;15.90;9.93;;;24.00;60.90;;;;;;5072591;28;20063;-38
2021/08/12 08:24:52;;;;;;;13.13;8.70;;;24.90;58.40;;;;;;5072362;28;20112;-38
2021/08/12 08:27:17;;;;;;;14.10;7.10;;;24.80;57.90;;;;;;5072674;28;20052;-36
2021/08/12 08:29:43;;;;;;;12.55;7.97;;;25.30;55.10;;;;;;5071760;28;20025;-38
2021/08/12 08:32:09;;;;;;;10.82;7.18;;;25.40;54.20;;;;;;5072185;28;20020;-36
2021/08/12 08:34:34;;;;;;;11.73;7.28;;;24.10;57.40;;;;;;5071927;28;20091;-37
2021/08/12 08:37:00;;;;;;;11.80;6.10;;;24.50;56.80;;;;;;5072347;28;20085;-37
2021/08/12 08:39:26;;;;;;;9.20;5.10;;;24.10;57.80;;;;;;5072546;28;20021;-37
2021/08/12 08:41:53;;;;;;;9.77;5.10;;;24.80;55.10;;;;;;5071800;28;20025;-37
2021/08/12 08:44:21;;;;;;;13.20;6.82;;;24.70;54.80;;;;;;5072225;28;20048;-37
2021/08/12 08:46:47;;;;;;;9.43;5.90;;;25.30;53.80;;;;;;5070726;28;20048;-38
2021/08/12 08:49:17;;;;;;;12.05;5.97;;;25.70;52.80;;;;;;5072603;28;20388;-38
2021/08/12 08:51:43;;;;;;;9.10;6.60;;;26.10;51.60;;;;;;5074479;28;20024;-38
2021/08/12 08:54:11;;;;;;;11.15;7.97;;;25.80;53.20;;;;;;5076627;28;20115;-37
2021/08/12 08:56:40;;;;;;;10.50;6.60;;;25.80;53.20;;;;;;5076202;28;20036;-36
2021/08/12 08:59:07;;;;;;;9.25;6.75;;;25.80;52.70;;;;;;5076405;28;20104;-39
2021/08/12 09:01:34;;;;;;;12.07;5.88;;;25.60;52.50;;;;;;5076075;28;20017;-37
2021/08/12 09:03:59;;;;;;;12.15;6.05;;;25.20;53.20;;;;;;5074279;28;20074;-38
2021/08/12 09:06:25;;;;;;;12.05;5.82;;;26.00;52.20;;;;;;5076218;28;20024;-39
2021/08/12 09:08:50;;;;;;;10.75;6.25;;;26.50;50.20;;;;;;5076024;28;20385;-37
2021/08/12 09:11:16;;;;;;;12.98;6.78;;;26.70;49.80;;;;;;5075806;28;20464;-38
2021/08/12 09:13:42;;;;;;;13.15;6.75;;;26.80;49.40;;;;;;5075755;28;20024;-37
2021/08/12 09:16:28;;;;;;;11.98;6.50;;;26.60;50.40;;;;;;5074789;28;20025;-37
2021/08/12 09:19:20;;;;;;;10.90;5.90;;;26.40;51.20;;;;;;5075031;28;20033;-36
2021/08/12 09:22:43;;;;;;;10.82;6.68;;;27.10;48.90;;;;;;5130837;27;20406;-38
2021/08/12 14:55:05;;;;;;;12.60;5.65;;;27.90;38.00;;;;;;5131432;27;20409;-38
2021/08/12 14:57:31;;;;;;;9.73;6.93;;;27.50;40.40;;;;;;5130995;28;20088;-38
2021/08/12 14:59:56;;;;;;;9.20;6.20;;;27.40;40.00;;;;;;5130789;28;20019;-38
2021/08/12 15:02:22;;;;;;;9.40;5.40;;;27.50;39.10;;;;;;5129977;28;20056;-39
2021/08/12 15:04:48;;;;;;;8.40;5.50;;;27.40;38.50;;;;;;5130510;28;20463;-39
2021/08/12 15:07:15;;;;;;;10.60;6.10;;;27.40;37.60;;;;;;5130942;28;20034;-39
2021/08/12 15:09:41;;;;;;;7.35;5.97;;;27.00;38.40;;;;;;5131123;28;20031;-38
2021/08/12 15:12:07;;;;;;;10.25;6.60;;;27.00;38.00;;;;;;5130289;28;20032;-37
2021/08/12 15:14:33;;;;;;;9.48;6.53;;;27.00;38.00;;;;;;5130299;28;20099;-47
2021/08/12 15:16:59;;;;;;;9.45;6.53;;;27.50;38.40;;;;;;5129808;28;20024;-37
2021/08/12 15:19:25;;;;;;;10.10;6.32;;;27.30;38.80;;;;;;5129802;28;20467;-38
2021/08/12 15:21:51;;;;;;;9.63;6.15;;;27.30;38.30;;;;;;5129886;28;20023;-38
2021/08/12 15:24:18;;;;;;;12.35;6.80;;;27.50;37.90;;;;;;5130094;28;20031;-38
2021/08/12 15:26:44;;;;;;;8.52;5.53;;;27.10;37.80;;;;;;5130152;28;20030;-38
2021/08/12 15:29:10;;;;;;;9.80;6.38;;;27.70;37.80;;;;;;5130149;28;20024;-38
2021/08/12 15:31:36;;;;;;;10.50;7.03;;;27.70;37.40;;;;;;5130313;28;20030;-38
2021/08/12 15:34:01;;;;;;;8.52;6.40;;;27.50;37.40;;;;;;5129919;28;20027;-39
2021/08/12 15:36:27;;;;;;;10.52;5.90;;;27.50;38.20;;;;;;5130138;28;20024;-38
2021/08/12 15:38:53;;;;;;;10.90;6.88;;;27.20;39.70;;;;;;5130011;28;20080;-39
2021/08/12 15:41:18;;;;;;;11.30;7.05;;;26.80;40.20;;;;;;5129842;28;20328;-39
2021/08/12 15:43:44;;;;;;;9.93;6.88;;;27.10;39.20;;;;;;5130130;28;20356;-38
2021/08/12 15:46:09;;;;;;;12.20;7.90;;;27.40;38.60;;;;;;5130505;28;20496;-38
2021/08/12 15:48:35;;;;;;;10.80;7.30;;;27.60;37.90;;;;;;5130158;28;20501;-38
2021/08/12 15:51:03;;;;;;;10.27;7.25;;;27.30;38.20;;;;;;5128264;28;20059;-38
2021/08/12 15:53:29;;;;;;;9.68;6.22;;;27.60;38.60;;;;;;5129252;28;20092;-38
2021/08/12 15:55:55;;;;;;;11.27;6.18;;;27.50;38.50;;;;;;5129562;28;20471;-38
2021/08/12 15:58:21;;;;;;;7.50;6.00;;;27.10;39.10;;;;;;5129133;28;20016;-38
2021/08/12 16:00:51;;;;;;;11.23;6.80;;;27.40;38.10;;;;;;5129547;28;20394;-38
2021/08/12 16:03:17;;;;;;;9.95;6.90;;;28.00;37.20;;;;;;5129425;28;20104;-38
2021/08/12 16:05:43;;;;;;;9.85;6.43;;;27.30;38.20;;;;;;5119964;28;20074;-37
2021/08/12 16:08:09;;;;;;;9.38;5.97;;;27.70;38.10;;;;;;5115882;28;20035;-38
2021/08/12 16:10:34;;;;;;;9.60;6.03;;;27.40;37.80;;;;;;5116203;28;20027;-37
2021/08/12 16:13:00;;;;;;;10.02;6.22;;;27.50;37.70;;;;;;5116021;28;20454;-37
2021/08/12 16:15:26;;;;;;;11.38;7.05;;;27.40;37.60;;;;;;5115489;28;20122;-37
2021/08/12 16:17:54;;;;;;;9.13;6.50;;;27.10;38.50;;;;;;5115306;28;20115;-38
2021/08/12 16:20:21;;;;;;;10.60;6.60;;;26.60;40.20;;;;;;5115101;28;20019;-37
2021/08/12 16:22:47;;;;;;;8.52;6.35;;;26.60;39.80;;;;;;5115590;28;20019;-37
2021/08/12 16:25:13;;;;;;;13.50;6.55;;;26.60;40.20;;;;;;5115266;28;20016;-38
2021/08/12 16:27:39;;;;;;;8.73;7.38;;;26.50;41.00;;;;;;5115390;28;20366;-37
2021/08/12 16:30:05;;;;;;;11.02;6.97;;;26.70;40.70;;;;;;5115184;28;20415;-37
2021/08/12 16:32:31;;;;;;;13.73;6.68;;;27.00;39.70;;;;;;5115868;28;20352;-37
2021/08/12 16:34:57;;;;;;;10.23;7.32;;;27.00;39.60;;;;;;5116031;28;20038;-39
2021/08/12 16:37:23;;;;;;;15.27;7.60;;;27.20;39.00;;;;;;5114849;28;20031;-38
2021/08/12 16:39:49;;;;;;;9.18;6.57;;;26.90;39.80;;;;;;5115319;28;20024;-38
2021/08/12 16:42:15;;;;;;;14.63;6.20;;;26.30;42.10;;;;;;5115203;28;20062;-38
2021/08/12 16:44:41;;;;;;;11.20;7.30;;;25.90;43.30;;;;;;5114700;28;20023;-39
2021/08/12 16:47:07;;;;;;;7.75;5.70;;;26.10;42.30;;;;;;5114705;28;20031;-38
2021/08/12 16:49:33;;;;;;;9.32;6.07;;;26.30;42.70;;;;;;5096580;28;20051;-38
2021/08/12 16:52:00;;;;;;;11.80;6.93;;;26.50;40.70;;;;;;5114914;28;20544;-37
2021/08/12 16:54:25;;;;;;;10.20;6.55;;;26.60;40.50;;;;;;5112872;28;20127;-38
2021/08/12 16:56:51;;;;;;;10.48;7.60;;;26.50;41.00;;;;;;5114502;28;20051;-38
2021/08/12 16:59:17;;;;;;;10.75;7.75;;;26.30;42.00;;;;;;5114764;28;20035;-39
2021/08/12 17:01:43;;;;;;;12.65;7.45;;;26.10;42.20;;;;;;5114413;28;20417;-38
2021/08/12 17:04:09;;;;;;;13.98;7.32;;;26.30;41.10;;;;;;5114687;28;20019;-38
2021/08/12 17:06:34;;;;;;;9.63;7.22;;;26.50;41.90;;;;;;5114050;28;20028;-38
2021/08/12 17:09:00;;;;;;;13.55;8.25;;;26.50;41.50;;;;;;5114311;28;20058;-38
2021/08/12 17:11:26;;;;;;;12.13;8.02;;;26.40;42.30;;;;;;5113695;28;20051;-38
2021/08/12 17:13:51;;;;;;;11.63;7.88;;;26.50;43.50;;;;;;5114461;28;20466;-40
2021/08/12 17:16:17;;;;;;;10.45;6.97;;;26.00;44.00;;;;;;5113366;28;20479;-38
2021/08/12 17:18:43;;;;;;;11.70;7.60;;;26.00;43.30;;;;;;5113827;28;20110;-37
2021/08/12 17:21:09;;;;;;;11.43;6.38;;;26.00;43.10;;;;;;5113015;28;20022;-38
2021/08/12 17:23:34;;;;;;;10.02;7.28;;;26.00;44.10;;;;;;5112829;28;20467;-37
2021/08/12 17:26:00;;;;;;;10.43;7.07;;;26.10;45.30;;;;;;5114415;28;20356;-37
2021/08/12 17:28:26;;;;;;;10.55;7.65;;;26.10;45.80;;;;;;5113938;28;20064;-39
2021/08/12 17:30:52;;;;;;;10.65;6.60;;;26.20;46.30;;;;;;5113679;28;20596;-39
2021/08/12 17:33:18;;;;;;;16.10;8.25;;;26.00;47.20;;;;;;5113424;28;20118;-41
2021/08/12 17:35:45;;;;;;;14.02;6.57;;;25.60;48.40;;;;;;5113763;28;20023;-38
2021/08/12 17:38:11;;;;;;;15.57;8.05;;;25.80;47.10;;;;;;5113778;28;20019;-38
2021/08/12 17:40:37;;;;;;;17.48;8.10;;;25.80;47.40;;;;;;5113565;28;20023;-38
2021/08/12 17:43:02;;;;;;;9.27;6.97;;;25.80;47.70;;;;;;5113426;28;20030;-39
2021/08/12 17:45:30;;;;;;;14.05;7.82;;;25.80;48.30;;;;;;5113711;28;20070;-39
2021/08/12 17:47:56;;;;;;;10.07;7.15;;;25.70;48.70;;;;;;5113629;28;20386;-39
2021/08/12 17:50:21;;;;;;;11.05;7.15;;;25.70;48.20;;;;;;5113203;28;20106;-38
2021/08/12 17:52:47;;;;;;;11.45;6.88;;;25.60;48.60;;;;;;5113365;28;20027;-38
2021/08/12 17:55:15;;;;;;;16.00;7.63;;;25.50;48.50;;;;;;5113439;28;20019;-38
2021/08/12 17:57:41;;;;;;;16.20;8.25;;;25.50;48.90;;;;;;5112928;28;20031;-38
2021/08/12 18:00:08;;;;;;;11.55;7.82;;;25.40;48.50;;;;;;5112865;28;20070;-39
2021/08/12 18:02:37;;;;;;;11.52;7.53;;;25.40;49.10;;;;;;5112658;28;20039;-39
2021/08/12 18:05:04;;;;;;;12.93;8.77;;;25.40;49.10;;;;;;5112650;28;20355;-38